Carnival Splendor — 3EUS — position and weather

sailwx.info

Track history (hours):
 
Tides and Currents Weather Stations Pressure Air Temp Water Temp Dewpoint Dewpoint Depression Visibility Wind Speed Wind Dir Waves Ship Positions

Carnival Splendor

Last reported at 2014-Aug-02 07:33 UTC. Time now 2014-Aug-02 08:42 UTC.
Position N 44°38' W 066°13'.

Length 289 m; draft 8.3 m.

Type: Ship. MMSI: 372808000.

Date/timePositionNaut miles runAvg speedWind from/ knotsBaromVisibWave heightAir tempDewpointWater temp
2014-Aug-02 07:33N 44°38' W 066°13'2612.6
2014-Aug-02 05:27N 44°18' W 066°36'2513.3
2014-Aug-02 03:32N 43°54' W 066°50'1515.5
2014-Aug-02 02:33N 43°39' W 066°51'1616.0
2014-Aug-02 01:33N 43°24' W 066°52'1818.5
2014-Aug-02 00:33N 43°05' W 066°53'1312.9
2014-Aug-01 23:33N 42°52' W 066°55'1514.6
2014-Aug-01 22:33N 42°38' W 066°58'1414.4
2014-Aug-01 21:33N 42°24' W 066°56'1717.0
2014-Aug-01 20:33N 42°06' W 066°58'2217.3
2014-Aug-01 19:18N 41°45' W 066°59'1418.0
2014-Aug-01 18:30N 41°30' W 067°00'1717.6
2014-Aug-01 17:33N 41°20' W 067°18'3019.4
2014-Aug-01 16:00N 41°00' W 067°48'410.1 130 / 131024.0 17.0
2014-Aug-01 15:33N 41°00' W 067°54'2116.3
2014-Aug-01 14:16N 40°48' W 068°16'1116.1
2014-Aug-01 13:33N 40°41' W 068°28'1616.0
2014-Aug-01 12:33N 40°34' W 068°48'1616.0
2014-Aug-01 11:33N 40°28' W 069°07'1616.3
2014-Aug-01 10:33N 40°26' W 069°28'1716.7
2014-Aug-01 09:33N 40°25' W 069°50'1616.5
2014-Aug-01 08:33N 40°25' W 070°12'1616.3
2014-Aug-01 07:34N 40°25' W 070°33'1716.6
2014-Aug-01 06:34N 40°24' W 070°55'814.8
2014-Aug-01 06:00N 40°24' W 071°06'919.8 220 / 101022.1 1.022.119.022.1
2014-Aug-01 05:34N 40°24' W 071°17'1716.8
2014-Aug-01 04:34N 40°23' W 071°39'1616.5
2014-Aug-01 03:34N 40°23' W 072°01'1716.6
2014-Aug-01 02:33N 40°23' W 072°23'1716.6
2014-Aug-01 01:34N 40°22' W 072°44'1616.4
2014-Aug-01 00:34N 40°22' W 073°06'1616.2
2014-Jul-31 23:34N 40°24' W 073°27'1615.8
2014-Jul-31 22:33N 40°27' W 073°47'1414.0
2014-Jul-31 21:34N 40°35' W 074°02'11 1.2
2014-Jul-31 12:32N 40°46' W 073°60'0 0.0
2014-Jul-31 11:33N 40°46' W 073°60'2 2.2
2014-Jul-31 10:33N 40°44' W 074°01'1111.5
2014-Jul-31 09:33N 40°33' W 074°01'1211.9
2014-Jul-31 08:33N 40°27' W 073°48'1313.1
2014-Jul-31 07:33N 40°14' W 073°45'1717.3
2014-Jul-31 06:34N 39°56' W 073°43'1717.3
2014-Jul-31 05:33N 39°39' W 073°40'1717.3
2014-Jul-31 04:33N 39°22' W 073°38'1717.3
2014-Jul-31 03:34N 39°05' W 073°35'1817.9
2014-Jul-31 02:34N 38°47' W 073°32'2719.8
2014-Jul-31 01:12N 38°20' W 073°28'14119.6
2014-Jul-30 18:00N 36°00' W 073°06'15118.9 280 / 131017.3 1.024.521.026.3
2014-Jul-30 10:00N 33°30' W 072°42'32620.4 240 / 81014.010.8 2.024.021.026.0
2014-Jul-29 18:00N 28°06' W 072°00'17521.9 200 / 121019.3 1.028.625.029.9
2014-Jul-29 10:00N 25°12' W 071°36'   140 / 101017.010.8 0.527.020.029.0
2014-Jul-25 14:00N 27°24' W 068°54'16320.4 230 / 201022.0 5.4 1.028.024.027.0
2014-Jul-25 06:00N 30°00' W 069°48'11823.6 210 / 241019.2 2.026.824.028.6
2014-Jul-25 01:00N 31°54' W 070°24'12517.9 230 / 301015.0 2.2 2.028.024.028.8
2014-Jul-24 18:00N 33°54' W 071°06'22921.4 230 / 401014.3 4.525.423.026.6
2014-Jul-24 07:18N 37°34' W 072°26'1822.0
2014-Jul-24 06:30N 37°51' W 072°32'2121.9
2014-Jul-24 05:34N 38°11' W 072°39'2221.7
2014-Jul-24 04:34N 38°31' W 072°47'2221.7
2014-Jul-24 03:34N 38°52' W 072°55'2121.2
2014-Jul-24 02:33N 39°13' W 073°02'2121.1
2014-Jul-24 01:33N 39°33' W 073°10'2221.5
2014-Jul-24 00:33N 39°54' W 073°18'2121.0
2014-Jul-23 23:33N 40°11' W 073°32'1918.8
2014-Jul-23 22:33N 40°26' W 073°48'1313.0
2014-Jul-23 21:34N 40°34' W 074°02'1211.9
2014-Jul-23 20:33N 40°45' W 074°01'1 0.2
2014-Jul-23 15:31N 40°46' W 073°60'0 0.0
2014-Jul-23 11:26N 40°46' W 073°60'0 0.3
2014-Jul-23 10:31N 40°46' W 074°00'9 9.6
2014-Jul-23 09:34N 40°37' W 074°03'1514.8
2014-Jul-23 08:34N 40°27' W 073°49'10 9.5
2014-Jul-23 07:34N 40°18' W 073°46'  
Track history (hours):
 
Tides and Currents Weather Stations Pressure Air Temp Water Temp Dewpoint Dewpoint Depression Visibility Wind Speed Wind Dir Waves Ship Positions

Carnival Splendor

Last reported at 2014-Aug-02 07:33 UTC. Time now 2014-Aug-02 08:42 UTC.
Position N 44°38' W 066°13'.

Length 289 m; draft 8.3 m.

Type: Ship. MMSI: 372808000.

Date/timePositionNaut miles runAvg speedWind from/ knotsBaromVisibWave heightAir tempDewpointWater temp
2014-Aug-02 07:33N 44°38' W 066°13'2612.6
2014-Aug-02 05:27N 44°18' W 066°36'2513.3
2014-Aug-02 03:32N 43°54' W 066°50'1515.5
2014-Aug-02 02:33N 43°39' W 066°51'1616.0
2014-Aug-02 01:33N 43°24' W 066°52'1818.5
2014-Aug-02 00:33N 43°05' W 066°53'1312.9
2014-Aug-01 23:33N 42°52' W 066°55'1514.6
2014-Aug-01 22:33N 42°38' W 066°58'1414.4
2014-Aug-01 21:33N 42°24' W 066°56'1717.0
2014-Aug-01 20:33N 42°06' W 066°58'2217.3
2014-Aug-01 19:18N 41°45' W 066°59'1418.0
2014-Aug-01 18:30N 41°30' W 067°00'1717.6
2014-Aug-01 17:33N 41°20' W 067°18'3019.4
2014-Aug-01 16:00N 41°00' W 067°48'410.1 130 / 131024.0 17.0
2014-Aug-01 15:33N 41°00' W 067°54'2116.3
2014-Aug-01 14:16N 40°48' W 068°16'1116.1
2014-Aug-01 13:33N 40°41' W 068°28'1616.0
2014-Aug-01 12:33N 40°34' W 068°48'1616.0
2014-Aug-01 11:33N 40°28' W 069°07'1616.3
2014-Aug-01 10:33N 40°26' W 069°28'1716.7
2014-Aug-01 09:33N 40°25' W 069°50'1616.5
2014-Aug-01 08:33N 40°25' W 070°12'1616.3
2014-Aug-01 07:34N 40°25' W 070°33'1716.6
2014-Aug-01 06:34N 40°24' W 070°55'814.8
2014-Aug-01 06:00N 40°24' W 071°06'919.8 220 / 101022.1 1.022.119.022.1
2014-Aug-01 05:34N 40°24' W 071°17'1716.8
2014-Aug-01 04:34N 40°23' W 071°39'1616.5
2014-Aug-01 03:34N 40°23' W 072°01'1716.6
2014-Aug-01 02:33N 40°23' W 072°23'1716.6
2014-Aug-01 01:34N 40°22' W 072°44'1616.4
2014-Aug-01 00:34N 40°22' W 073°06'1616.2
2014-Jul-31 23:34N 40°24' W 073°27'1615.8
2014-Jul-31 22:33N 40°27' W 073°47'1414.0
2014-Jul-31 21:34N 40°35' W 074°02'11 1.2
2014-Jul-31 12:32N 40°46' W 073°60'0 0.0
2014-Jul-31 11:33N 40°46' W 073°60'2 2.2
2014-Jul-31 10:33N 40°44' W 074°01'1111.5
2014-Jul-31 09:33N 40°33' W 074°01'1211.9
2014-Jul-31 08:33N 40°27' W 073°48'1313.1
2014-Jul-31 07:33N 40°14' W 073°45'1717.3
2014-Jul-31 06:34N 39°56' W 073°43'1717.3
2014-Jul-31 05:33N 39°39' W 073°40'1717.3
2014-Jul-31 04:33N 39°22' W 073°38'1717.3
2014-Jul-31 03:34N 39°05' W 073°35'1817.9
2014-Jul-31 02:34N 38°47' W 073°32'2719.8
2014-Jul-31 01:12N 38°20' W 073°28'14119.6
2014-Jul-30 18:00N 36°00' W 073°06'15118.9 280 / 131017.3 1.024.521.026.3
2014-Jul-30 10:00N 33°30' W 072°42'32620.4 240 / 81014.010.8 2.024.021.026.0
2014-Jul-29 18:00N 28°06' W 072°00'17521.9 200 / 121019.3 1.028.625.029.9
2014-Jul-29 10:00N 25°12' W 071°36'   140 / 101017.010.8 0.527.020.029.0
2014-Jul-25 14:00N 27°24' W 068°54'16320.4 230 / 201022.0 5.4 1.028.024.027.0
2014-Jul-25 06:00N 30°00' W 069°48'11823.6 210 / 241019.2 2.026.824.028.6
2014-Jul-25 01:00N 31°54' W 070°24'12517.9 230 / 301015.0 2.2 2.028.024.028.8
2014-Jul-24 18:00N 33°54' W 071°06'22921.4 230 / 401014.3 4.525.423.026.6
2014-Jul-24 07:18N 37°34' W 072°26'1822.0
2014-Jul-24 06:30N 37°51' W 072°32'2121.9
2014-Jul-24 05:34N 38°11' W 072°39'2221.7
2014-Jul-24 04:34N 38°31' W 072°47'2221.7
2014-Jul-24 03:34N 38°52' W 072°55'2121.2
2014-Jul-24 02:33N 39°13' W 073°02'2121.1
2014-Jul-24 01:33N 39°33' W 073°10'2221.5
2014-Jul-24 00:33N 39°54' W 073°18'2121.0
2014-Jul-23 23:33N 40°11' W 073°32'1918.8
2014-Jul-23 22:33N 40°26' W 073°48'1313.0
2014-Jul-23 21:34N 40°34' W 074°02'1211.9
2014-Jul-23 20:33N 40°45' W 074°01'1 0.2
2014-Jul-23 15:31N 40°46' W 073°60'0 0.0
2014-Jul-23 11:26N 40°46' W 073°60'0 0.3
2014-Jul-23 10:31N 40°46' W 074°00'9 9.6
2014-Jul-23 09:34N 40°37' W 074°03'1514.8
2014-Jul-23 08:34N 40°27' W 073°49'10 9.5
2014-Jul-23 07:34N 40°18' W 073°46'  

Dump ship's entire track history